Time;durP1;ratioP1;P1;durP2;ratioP2;P2;SDS_P1;SDS_P2;PMS_P1;PMS_P2;Temp;Humidity;BMP_temperature;BMP_pressure;BME280_temperature;BME280_humidity;BME280_pressure;Samples;Min_cycle;Max_cycle;Signal;HPM_P1;HPM_P2
2023/11/21 00:00:16;;;;;;;21.00;11.32;;;;;;;11.66;66.50;101001.13;6144249;23;115219;-80
2023/11/21 00:02:45;;;;;;;22.95;10.93;;;;;;;11.68;66.58;100995.75;6144627;23;114002;-79
2023/11/21 00:05:14;;;;;;;26.58;11.60;;;;;;;11.69;66.59;101002.78;6145476;22;123365;-80
2023/11/21 00:07:42;;;;;;;22.45;11.23;;;;;;;11.73;66.38;101017.59;6147025;22;123221;-80
2023/11/21 00:10:14;;;;;;;23.60;11.73;;;;;;;11.73;66.56;101017.59;6146668;22;116143;-80
2023/11/21 00:12:42;;;;;;;25.60;11.68;;;;;;;11.75;66.46;101004.28;6146739;23;114536;-80
2023/11/21 00:15:13;;;;;;;24.58;11.75;;;;;;;11.75;66.59;101015.75;6143363;23;124526;-80
2023/11/21 00:17:42;;;;;;;28.60;11.70;;;;;;;11.75;66.43;101015.75;6141910;23;124536;-80
2023/11/21 00:20:12;;;;;;;27.70;11.13;;;;;;;11.76;66.50;101017.47;6143349;23;115823;-79
2023/11/21 00:22:41;;;;;;;25.50;12.20;;;;;;;11.76;66.44;101012.16;6144446;22;114403;-80
2023/11/21 00:25:09;;;;;;;23.25;11.80;;;;;;;11.76;66.59;101006.84;6164345;22;124292;-80
2023/11/21 00:27:36;;;;;;;28.52;11.95;;;;;;;11.77;66.57;101015.66;6144727;23;124756;-80
2023/11/21 00:30:05;;;;;;;25.27;11.73;;;;;;;11.78;66.47;101020.91;6144270;23;113786;-80
2023/11/21 00:32:33;;;;;;;21.63;10.65;;;;;;;11.77;66.35;101013.03;6144204;23;115091;-80
2023/11/21 00:35:01;;;;;;;25.55;11.05;;;;;;;11.76;66.44;101012.16;6143139;22;123764;-80
2023/11/21 00:37:31;;;;;;;22.67;11.02;;;;;;;11.75;66.32;101021.03;6140537;23;122649;-80
2023/11/21 00:39:58;;;;;;;26.55;11.60;;;;;;;11.74;66.09;101019.34;6143532;23;115676;-79
2023/11/21 00:42:26;;;;;;;20.80;11.95;;;;;;;11.67;65.96;101012.59;6169361;22;116505;-80
2023/11/21 00:44:53;;;;;;;27.65;11.25;;;;;;;11.65;66.39;101017.13;6144772;22;124978;-80
2023/11/21 00:47:20;;;;;;;19.95;10.85;;;;;;;11.63;66.00;101021.63;6139751;23;124800;-80
2023/11/21 00:49:48;;;;;;;24.90;11.45;;;;;;;11.59;66.19;101014.75;6144509;22;114842;-80
2023/11/21 00:52:16;;;;;;;21.02;11.63;;;;;;;11.56;66.25;101014.88;6142530;23;114835;-79
2023/11/21 00:54:44;;;;;;;20.92;10.30;;;;;;;11.53;66.10;101015.91;6142574;23;122520;-80
2023/11/21 00:57:12;;;;;;;25.60;11.40;;;;;;;11.50;66.28;101022.19;6144739;22;123833;-80
2023/11/21 00:59:39;;;;;;;25.83;11.38;;;;;;;11.48;66.26;101024.06;6145110;23;113864;-79
2023/11/21 01:02:10;;;;;;;28.88;11.95;;;;;;;11.46;66.17;101030.38;6145083;22;114654;-80
2023/11/21 01:04:37;;;;;;;28.85;11.40;;;;;;;11.43;66.28;101030.50;6143735;22;125202;-80
2023/11/21 01:07:05;;;;;;;24.38;11.43;;;;;;;11.42;66.41;101031.44;6143558;22;122901;-80
2023/11/21 01:09:33;;;;;;;19.40;10.75;;;;;;;11.40;66.28;101042.13;6168786;22;114939;-80
2023/11/21 01:12:00;;;;;;;26.50;12.43;;;;;;;11.38;66.20;101046.63;6144409;23;114324;-80
2023/11/21 01:14:28;;;;;;;26.15;12.02;;;;;;;11.37;66.29;101047.56;6145571;22;126023;-80
2023/11/21 01:16:57;;;;;;;24.85;11.05;;;;;;;11.35;66.32;101044.13;6147466;22;125722;-80
2023/11/21 01:19:25;;;;;;;25.75;11.95;;;;;;;11.34;66.31;101053.00;6171239;22;114930;-80
2023/11/21 01:21:52;;;;;;;24.13;11.23;;;;;;;11.32;66.44;101060.19;6145439;22;114308;-79
2023/11/21 01:24:20;;;;;;;25.02;11.73;;;;;;;11.29;66.33;101063.81;6147426;22;124558;-79
2023/11/21 01:26:47;;;;;;;28.55;12.77;;;;;;;11.28;66.31;101058.56;6145164;23;123516;-80
2023/11/21 01:29:15;;;;;;;26.92;12.20;;;;;;;11.27;66.40;101072.78;6145159;22;115506;-80
2023/11/21 01:31:42;;;;;;;24.15;11.55;;;;;;;11.26;66.38;101076.34;6146802;22;115634;-80
2023/11/21 01:34:09;;;;;;;25.65;11.55;;;;;;;11.27;66.51;101078.06;6145819;22;123526;-80
2023/11/21 01:36:37;;;;;;;32.25;12.23;;;;;;;11.26;66.50;101081.63;6147491;22;124283;-80
2023/11/21 01:39:08;;;;;;;25.60;12.13;;;;;;;11.28;66.54;101074.47;6147691;22;114765;-79
2023/11/21 01:41:36;;;;;;;29.80;11.63;;;;;;;11.27;66.53;101084.22;6147614;22;113576;-80
2023/11/21 01:44:07;;;;;;;28.55;12.52;;;;;;;11.28;66.53;101085.09;6121296;22;123564;-80
2023/11/21 01:46:35;;;;;;;33.42;13.82;;;;;;;11.28;66.66;101083.31;6147528;22;124790;-79
2023/11/21 01:49:03;;;;;;;27.30;13.25;;;;;;;11.27;66.37;101088.69;6148082;22;115240;-79
2023/11/21 01:51:31;;;;;;;33.50;13.20;;;;;;;11.28;66.49;101090.38;6147185;22;113657;-79
2023/11/21 01:53:59;;;;;;;28.30;12.13;;;;;;;11.29;66.66;101092.13;6145415;22;123738;-80
2023/11/21 01:56:26;;;;;;;28.27;12.48;;;;;;;11.29;66.47;101089.47;6147731;22;123883;-80
2023/11/21 01:58:54;;;;;;;34.95;13.52;;;;;;;11.30;66.50;101085.88;6146931;22;115275;-80
2023/11/21 02:01:22;;;;;;;34.53;13.13;;;;;;;11.30;66.69;101085.88;6146408;22;114814;-80
2023/11/21 02:03:50;;;;;;;34.65;14.18;;;;;;;11.30;66.69;101083.22;6146648;22;124955;-80
2023/11/21 02:06:18;;;;;;;36.95;14.73;;;;;;;11.31;66.66;101074.34;6147618;22;125463;-80
2023/11/21 02:08:46;;;;;;;45.20;14.38;;;;;;;11.30;66.76;101080.56;6148050;22;114754;-79
2023/11/21 02:11:13;;;;;;;48.00;14.90;;;;;;;11.31;66.74;101079.66;6147957;22;115881;-80
2023/11/21 02:13:44;;;;;;;58.47;14.63;;;;;;;11.33;66.78;101088.41;6147292;22;124837;-80
2023/11/21 02:16:14;;;;;;;61.60;14.13;;;;;;;11.34;66.72;101090.13;6147829;22;126328;-80
2023/11/21 02:18:42;;;;;;;49.15;13.85;;;;;;;11.34;66.80;101090.13;6147630;22;116585;-80
2023/11/21 02:21:10;;;;;;;88.72;15.15;;;;;;;11.34;66.93;101095.44;6145953;22;114737;-79
2023/11/21 02:23:38;;;;;;;54.80;14.52;;;;;;;11.37;67.22;101103.25;6147811;22;124062;-80
2023/11/21 02:26:06;;;;;;;130.40;15.30;;;;;;;11.37;67.06;101110.34;6145830;22;123674;-80
2023/11/21 02:28:33;;;;;;;51.80;12.98;;;;;;;11.35;66.90;101102.44;6146060;22;115131;-80
2023/11/21 02:31:02;;;;;;;39.42;13.73;;;;;;;11.34;67.25;101106.06;6147057;22;114732;-79
2023/11/21 02:33:33;;;;;;;71.03;14.45;;;;;;;11.34;67.09;101100.75;6147819;22;123928;-80
2023/11/21 02:36:02;;;;;;;70.10;13.98;;;;;;;11.35;67.08;101099.81;6148758;22;124794;-80
2023/11/21 02:38:30;;;;;;;86.47;14.45;;;;;;;11.35;67.05;101107.75;6148178;22;115317;-79
2023/11/21 02:40:59;;;;;;;52.15;13.38;;;;;;;11.34;67.23;101111.34;6146204;22;113481;-80
2023/11/21 02:43:26;;;;;;;67.80;13.07;;;;;;;11.36;67.15;101117.44;6145372;22;123070;-79
2023/11/21 02:45:54;;;;;;;67.75;13.35;;;;;;;11.35;67.29;101107.75;6147917;22;124005;-80
2023/11/21 02:48:23;;;;;;;84.95;14.13;;;;;;;11.38;67.29;101112.94;6148459;22;115106;-80
2023/11/21 02:50:53;;;;;;;70.13;13.52;;;;;;;11.35;67.05;101107.75;6147956;22;114098;-80
2023/11/21 02:53:20;;;;;;;73.32;13.70;;;;;;;11.37;67.11;101115.66;6146048;22;124535;-80
2023/11/21 02:55:47;;;;;;;59.00;13.40;;;;;;;11.37;67.19;101111.19;6148100;22;126188;-79
2023/11/21 02:58:15;;;;;;;40.15;12.68;;;;;;;11.36;67.22;101120.09;6148075;22;114498;-80
2023/11/21 03:00:43;;;;;;;62.72;13.63;;;;;;;11.36;67.19;101122.75;6147981;22;114757;-80
2023/11/21 03:03:12;;;;;;;41.28;12.90;;;;;;;11.34;67.29;101116.66;6147118;22;124478;-80
2023/11/21 03:05:40;;;;;;;53.10;13.82;;;;;;;11.32;67.21;101121.16;6146805;22;124780;-79
2023/11/21 03:08:07;;;;;;;39.03;12.95;;;;;;;11.32;67.18;101118.50;6147058;22;114708;-79
2023/11/21 03:10:34;;;;;;;47.20;12.15;;;;;;;11.29;67.31;101121.28;6147137;22;114404;-80
2023/11/21 03:13:02;;;;;;;55.08;13.15;;;;;;;11.29;67.29;101123.94;6146452;22;125016;-80
2023/11/21 03:15:29;;;;;;;84.80;14.60;;;;;;;11.31;67.32;101127.38;6147377;22;124714;-79
2023/11/21 03:17:58;;;;;;;77.25;13.25;;;;;;;11.31;67.41;101127.38;6146189;22;113354;-80
2023/11/21 03:20:25;;;;;;;58.05;12.48;;;;;;;11.30;67.27;101130.94;6147564;22;113524;-80
2023/11/21 03:22:53;;;;;;;46.78;13.07;;;;;;;11.31;67.44;101132.69;6147299;22;125003;-79
2023/11/21 03:25:22;;;;;;;62.47;13.65;;;;;;;11.32;67.48;101137.06;6121480;22;124215;-80
2023/11/21 03:28:09;;;;;;;60.72;13.10;;;;;;;11.33;67.40;101130.81;6111830;22;114637;-78
2023/11/21 03:30:36;;;;;;;76.50;13.90;;;;;;;11.33;67.54;101136.13;6090943;23;113099;-76
2023/11/21 03:33:04;;;;;;;56.38;14.18;;;;;;;11.35;67.47;101139.56;6085170;23;123277;-77
2023/11/21 03:35:31;;;;;;;92.18;13.90;;;;;;;11.35;67.35;101134.28;6064413;23;123525;-77
2023/11/21 03:38:00;;;;;;;35.60;13.60;;;;;;;11.36;67.51;101143.97;6064943;23;114958;-77
2023/11/21 03:40:29;;;;;;;36.58;13.02;;;;;;;11.39;67.42;101141.16;6064748;23;114117;-76
2023/11/21 03:42:58;;;;;;;58.45;13.40;;;;;;;11.41;67.59;101144.59;6062752;23;123548;-76
2023/11/21 03:45:25;;;;;;;152.75;15.77;;;;;;;11.41;67.47;101138.44;6064614;23;124188;-78
2023/11/21 03:47:58;;;;;;;42.85;13.43;;;;;;;11.40;67.57;101136.75;6064864;23;114198;-77
2023/11/21 03:50:25;;;;;;;52.55;13.82;;;;;;;11.40;67.49;101137.59;6064747;23;114546;-77
2023/11/21 03:52:53;;;;;;;36.63;13.40;;;;;;;11.39;67.47;101140.31;6064909;23;123918;-77
2023/11/21 03:55:21;;;;;;;41.72;14.23;;;;;;;11.38;67.46;101144.75;6062858;23;124199;-77
2023/11/21 03:57:52;;;;;;;56.80;14.05;;;;;;;11.37;67.57;101143.03;6064340;23;115586;-78
2023/11/21 04:00:20;;;;;;;60.50;14.63;;;;;;;11.36;67.57;101136.00;6065157;23;114888;-77
2023/11/21 04:02:57;;;;;;;89.15;14.98;;;;;;;11.32;67.40;101134.44;6064166;23;124148;-77
2023/11/21 04:05:24;;;;;;;53.58;13.32;;;;;;;11.31;67.52;101138.00;6063657;23;122984;-77
2023/11/21 04:07:59;;;;;;;60.55;13.85;;;;;;;11.29;67.43;101139.84;6065584;23;114309;-78
2023/11/21 04:10:26;;;;;;;68.37;13.60;;;;;;;11.28;67.47;101146.06;6064647;23;114527;-77
2023/11/21 04:12:53;;;;;;;64.38;13.80;;;;;;;11.27;67.66;101158.47;6062144;23;124534;-77
2023/11/21 04:15:25;;;;;;;57.05;12.98;;;;;;;11.27;67.77;101162.91;6065443;23;124137;-77
2023/11/21 04:17:52;;;;;;;95.03;14.98;;;;;;;11.26;67.64;101164.72;6066552;23;115134;-77
2023/11/21 04:20:37;;;;;;;60.97;13.82;;;;;;;11.24;67.74;101173.66;6064882;23;113928;-77
2023/11/21 04:23:04;;;;;;;41.53;14.10;;;;;;;11.26;67.62;101177.09;6061838;23;123894;-77
2023/11/21 04:25:32;;;;;;;36.47;14.10;;;;;;;11.29;67.73;101182.28;6062946;23;123688;-77
2023/11/21 04:27:59;;;;;;;51.25;13.00;;;;;;;11.29;67.79;101193.75;6064892;23;114491;-77
2023/11/21 04:30:27;;;;;;;58.03;13.68;;;;;;;11.29;67.52;101192.88;6062864;23;115050;-77
2023/11/21 04:32:54;;;;;;;48.38;14.25;;;;;;;11.27;67.55;101189.44;6063795;23;124744;-77
2023/11/21 04:35:29;;;;;;;64.60;14.48;;;;;;;11.27;67.83;101192.09;6065630;23;124346;-77
2023/11/21 04:37:57;;;;;;;42.50;13.30;;;;;;;11.29;67.72;101192.88;6066166;23;114218;-78
2023/11/21 04:40:27;;;;;;;55.55;12.73;;;;;;;11.31;67.66;101201.63;6063119;23;113418;-76
2023/11/21 04:42:54;;;;;;;47.80;13.02;;;;;;;11.28;67.49;101202.63;6064284;23;123628;-76
2023/11/21 04:45:21;;;;;;;36.55;12.68;;;;;;;11.26;67.09;101200.97;6064619;23;123784;-76
2023/11/21 04:47:49;;;;;;;52.95;13.68;;;;;;;11.24;67.54;101200.16;6064341;23;114864;-76
2023/11/21 04:50:16;;;;;;;33.95;12.48;;;;;;;11.24;67.54;101205.47;6065377;23;115008;-76
2023/11/21 04:52:44;;;;;;;38.80;12.98;;;;;;;11.25;67.68;101212.50;6064592;23;124101;-78
2023/11/21 04:55:11;;;;;;;58.42;13.70;;;;;;;11.25;67.71;101217.81;6064846;23;123799;-77
2023/11/21 04:57:41;;;;;;;26.52;12.98;;;;;;;11.24;67.57;101226.69;6065814;23;114316;-77
2023/11/21 05:00:10;;;;;;;81.88;14.38;;;;;;;11.25;67.49;101225.75;6066239;23;114350;-77
2023/11/21 05:02:38;;;;;;;29.50;13.13;;;;;;;11.26;67.65;101224.81;6064189;23;124272;-77
2023/11/21 05:05:07;;;;;;;30.15;12.95;;;;;;;11.28;67.58;101233.56;6066799;23;123895;-76
2023/11/21 05:07:35;;;;;;;33.63;12.95;;;;;;;11.29;67.66;101227.34;6066080;23;114390;-76
2023/11/21 05:10:14;;;;;;;46.40;13.90;;;;;;;11.30;67.56;101232.59;6066490;23;114000;-76
2023/11/21 05:12:42;;;;;;;28.05;13.25;;;;;;;11.32;67.11;101235.19;6065232;23;124472;-76
2023/11/21 05:15:14;;;;;;;36.45;13.52;;;;;;;11.33;67.77;101231.59;6064222;23;123154;-76
2023/11/21 05:17:45;;;;;;;27.25;12.93;;;;;;;11.35;67.62;101237.69;6066093;23;114139;-77
2023/11/21 05:20:14;;;;;;;32.70;12.55;;;;;;;11.36;67.67;101236.78;6063163;23;113377;-76
2023/11/21 05:22:42;;;;;;;29.17;13.02;;;;;;;11.36;67.59;101242.09;6065165;23;124114;-76
2023/11/21 05:25:11;;;;;;;36.63;14.25;;;;;;;11.36;67.72;101242.09;6064441;23;124443;-76
2023/11/21 05:27:38;;;;;;;36.08;13.68;;;;;;;11.37;67.64;101253.53;6065294;23;114537;-77
2023/11/21 05:30:11;;;;;;;30.73;12.43;;;;;;;11.35;67.63;101245.66;6066213;23;113940;-76
2023/11/21 05:32:39;;;;;;;29.60;13.40;;;;;;;11.34;67.62;101254.56;6064827;23;124834;-77
2023/11/21 05:35:11;;;;;;;36.13;14.38;;;;;;;11.30;67.60;101247.63;6064471;23;123746;-76
2023/11/21 05:37:39;;;;;;;24.77;13.40;;;;;;;11.31;67.74;101262.63;6062846;23;114574;-76
2023/11/21 05:40:08;;;;;;;30.75;13.60;;;;;;;11.31;67.57;101254.66;6065574;23;115748;-76
2023/11/21 05:42:36;;;;;;;28.20;13.60;;;;;;;11.32;67.69;101255.53;6063011;23;124075;-76
2023/11/21 05:45:10;;;;;;;32.78;13.50;;;;;;;11.32;67.62;101259.06;6062997;23;123782;-76
2023/11/21 05:47:40;;;;;;;38.97;12.83;;;;;;;11.30;67.59;101252.94;6064699;23;114480;-76
2023/11/21 05:50:14;;;;;;;31.40;12.43;;;;;;;11.30;67.74;101258.22;6065570;23;114320;-76
2023/11/21 05:52:46;;;;;;;34.10;14.10;;;;;;;11.30;67.58;101260.88;6062610;23;124485;-76
2023/11/21 05:55:15;;;;;;;28.33;13.25;;;;;;;11.29;67.81;101269.78;6065078;23;124110;-76
2023/11/21 05:57:44;;;;;;;29.55;12.52;;;;;;;11.31;67.77;101275.88;6063248;23;113908;-76
2023/11/21 06:00:32;;;;;;;41.63;12.95;;;;;;;11.31;67.58;101286.50;6064196;23;114040;-75
2023/11/21 06:02:59;;;;;;;27.20;13.20;;;;;;;11.31;67.60;101281.19;6062695;23;124170;-76
2023/11/21 06:05:27;;;;;;;30.88;13.23;;;;;;;11.30;67.45;101284.75;6063068;23;123967;-76
2023/11/21 06:07:58;;;;;;;30.90;13.32;;;;;;;11.30;67.52;101295.34;6063997;23;114434;-76
2023/11/21 06:10:28;;;;;;;26.85;12.52;;;;;;;11.28;67.60;101299.84;6064711;23;113821;-77
2023/11/21 06:12:55;;;;;;;26.42;12.73;;;;;;;11.28;67.59;101302.50;6064486;23;124005;-78
2023/11/21 06:15:23;;;;;;;27.80;13.30;;;;;;;11.29;67.61;101298.94;6064201;23;123459;-77
2023/11/21 06:17:54;;;;;;;24.40;12.30;;;;;;;11.28;67.52;101291.91;6065578;23;114945;-78
2023/11/21 06:20:22;;;;;;;25.92;12.55;;;;;;;11.27;67.43;101295.50;6063539;23;114419;-78
2023/11/21 06:22:51;;;;;;;26.13;13.10;;;;;;;11.27;67.47;101306.09;6062819;23;124246;-77
2023/11/21 06:25:20;;;;;;;24.23;12.18;;;;;;;11.28;67.96;101302.50;6039691;23;123049;-76
2023/11/21 06:27:48;;;;;;;28.08;12.93;;;;;;;11.29;67.52;101309.56;6065082;23;115342;-75
2023/11/21 06:30:19;;;;;;;28.40;12.70;;;;;;;11.30;67.49;101311.25;6062567;23;113408;-76
2023/11/21 06:32:46;;;;;;;27.73;12.77;;;;;;;11.30;67.51;101308.59;6062946;23;124031;-76
2023/11/21 06:35:15;;;;;;;22.48;12.02;;;;;;;11.28;67.36;101307.81;6063692;23;124129;-75
2023/11/21 06:37:47;;;;;;;23.85;12.43;;;;;;;11.28;67.60;101313.13;6062533;23;113711;-75
2023/11/21 06:40:18;;;;;;;23.70;12.57;;;;;;;11.27;67.47;101328.16;6064017;23;113819;-76
2023/11/21 06:42:47;;;;;;;26.42;12.07;;;;;;;11.27;67.48;101322.88;6062431;23;123891;-76
2023/11/21 06:45:15;;;;;;;20.92;11.75;;;;;;;11.29;67.56;101325.47;6063418;23;125268;-76
2023/11/21 06:47:45;;;;;;;23.02;12.10;;;;;;;11.29;67.52;101330.78;6064424;23;114499;-76
2023/11/21 06:50:13;;;;;;;26.80;12.32;;;;;;;11.29;67.54;101330.78;6065723;23;114192;-76
2023/11/21 06:52:43;;;;;;;20.15;12.00;;;;;;;11.26;67.71;101330.88;6061515;23;123326;-76
2023/11/21 06:55:17;;;;;;;19.00;10.75;;;;;;;11.27;67.71;101332.63;6063325;23;124382;-76
2023/11/21 06:57:44;;;;;;;19.95;10.35;;;;;;;11.26;67.65;101336.19;6063889;23;114255;-77
2023/11/21 07:00:17;;;;;;;18.95;10.80;;;;;;;11.23;67.72;101336.31;6063867;23;115044;-77
2023/11/21 07:02:44;;;;;;;20.08;11.07;;;;;;;11.23;67.54;101341.63;6061351;23;124249;-75
2023/11/21 07:05:14;;;;;;;19.80;10.48;;;;;;;11.24;67.51;101343.34;6064418;23;125082;-75
2023/11/21 07:07:43;;;;;;;23.58;12.18;;;;;;;11.26;67.72;101352.09;6061781;23;113283;-74
2023/11/21 07:10:10;;;;;;;23.35;11.77;;;;;;;11.26;67.54;101346.78;6063556;23;113817;-76
2023/11/21 07:12:38;;;;;;;19.23;11.32;;;;;;;11.28;67.79;101356.44;6037157;23;122657;-75
2023/11/21 07:15:09;;;;;;;21.83;11.60;;;;;;;11.29;67.50;101358.13;6063965;23;124483;-76
2023/11/21 07:17:41;;;;;;;22.08;11.55;;;;;;;11.30;67.53;101369.59;6064088;23;115348;-75
2023/11/21 07:20:10;;;;;;;19.90;11.07;;;;;;;11.30;67.52;101369.59;6064217;23;115437;-76
2023/11/21 07:22:39;;;;;;;21.15;11.68;;;;;;;11.31;67.75;101376.66;6059653;23;122963;-76
2023/11/21 07:25:09;;;;;;;22.63;11.73;;;;;;;11.31;67.55;101381.94;6060450;23;123291;-76
2023/11/21 07:27:37;;;;;;;23.10;12.02;;;;;;;11.34;67.66;101395.09;6057926;23;113625;-75
2023/11/21 07:30:07;;;;;;;18.60;11.73;;;;;;;11.36;67.81;101401.22;6063052;23;113802;-76
2023/11/21 07:32:39;;;;;;;23.30;12.25;;;;;;;11.37;67.64;101408.22;6085726;23;124304;-75
2023/11/21 07:35:10;;;;;;;;;;;;;;;11.38;67.69;101409.97;6038249;23;123182;-75
2023/11/21 07:37:37;;;;;;;21.05;11.32;;;;;;;11.41;67.49;101409.81;6061369;23;114139;-76
2023/11/21 07:40:08;;;;;;;22.23;11.73;;;;;;;11.42;67.97;101406.25;6063704;22;114346;-79
2023/11/21 07:42:37;;;;;;;20.25;11.52;;;;;;;11.44;67.73;101415.03;6121599;23;124266;-79
2023/11/21 07:45:06;;;;;;;24.65;12.75;;;;;;;11.46;67.73;101413.16;6123057;23;124500;-77
2023/11/21 07:47:36;;;;;;;20.92;11.85;;;;;;;11.48;67.77;101416.63;6122809;23;113443;-76
2023/11/21 07:50:04;;;;;;;25.60;12.60;;;;;;;11.49;67.60;101418.34;6121788;23;114072;-77
2023/11/21 07:52:34;;;;;;;26.70;12.88;;;;;;;11.52;67.75;101421.81;6120754;23;124180;-77
2023/11/21 07:55:16;;;;;;;23.30;13.27;;;;;;;11.55;67.73;101427.00;6122669;23;124517;-79
2023/11/21 07:58:12;;;;;;;26.42;13.70;;;;;;;11.55;67.63;101417.25;6102515;23;113800;-80
2023/11/21 08:00:39;;;;;;;;;;;;;;;11.56;67.62;101418.09;6127079;23;113824;-80
2023/11/21 08:03:30;;;;;;;15.20;8.02;;;;;;;11.57;67.54;101427.81;6122182;23;123846;-80
2023/11/21 08:05:58;;;;;;;16.77;8.73;;;;;;;11.59;67.49;101433.91;6122101;23;123487;-78
2023/11/21 08:08:27;;;;;;;19.23;10.68;;;;;;;11.59;67.65;101428.59;6097447;23;114233;-78
2023/11/21 08:10:57;;;;;;;20.90;10.90;;;;;;;11.61;67.58;101434.72;6122101;23;114981;-78
2023/11/21 08:13:30;;;;;;;22.38;11.30;;;;;;;11.64;67.75;101437.22;6123521;23;125058;-77
2023/11/21 08:16:02;;;;;;;21.50;11.02;;;;;;;11.66;67.69;101440.72;6123425;23;123006;-76
2023/11/21 08:18:29;;;;;;;19.80;10.85;;;;;;;11.67;67.73;101445.06;6123845;23;114348;-75
2023/11/21 08:20:57;;;;;;;22.08;11.57;;;;;;;11.67;67.68;101442.41;6122008;23;114121;-75
2023/11/21 08:23:28;;;;;;;20.95;11.20;;;;;;;11.68;67.85;101449.47;6122330;23;124164;-76
2023/11/21 08:25:55;;;;;;;20.48;10.43;;;;;;;11.69;67.63;101449.38;6123243;23;124261;-76
2023/11/21 08:28:25;;;;;;;19.55;10.30;;;;;;;11.73;67.68;101462.53;6122752;23;115132;-76
2023/11/21 08:30:54;;;;;;;21.40;10.07;;;;;;;11.76;67.70;101459.78;6122792;23;114119;-75
2023/11/21 08:33:21;;;;;;;20.40;8.88;;;;;;;11.77;67.86;101459.72;6121149;23;124448;-75
2023/11/21 08:35:50;;;;;;;16.92;9.73;;;;;;;11.80;67.75;101470.19;6122209;23;123873;-75
2023/11/21 08:38:17;;;;;;;19.83;10.05;;;;;;;11.82;67.74;101467.47;6122930;23;114300;-75
2023/11/21 08:40:45;;;;;;;23.35;10.30;;;;;;;11.84;67.96;101466.47;6120336;23;112910;-75
2023/11/21 08:43:13;;;;;;;22.10;11.32;;;;;;;11.86;67.76;101475.25;6119925;22;123442;-75
2023/11/21 08:45:41;;;;;;;23.02;11.55;;;;;;;11.88;67.72;101481.38;6122341;23;123946;-75
2023/11/21 08:48:08;;;;;;;18.70;11.70;;;;;;;11.91;67.80;101488.38;6121525;23;113762;-75
2023/11/21 08:50:36;;;;;;;19.92;11.10;;;;;;;11.94;67.78;101498.88;6123583;23;114626;-75
2023/11/21 08:53:05;;;;;;;21.00;11.60;;;;;;;11.98;67.88;101499.59;6121533;23;123873;-76
2023/11/21 08:55:37;;;;;;;23.88;11.38;;;;;;;12.00;67.93;101501.28;6121975;23;123899;-75
2023/11/21 08:58:05;;;;;;;23.13;11.55;;;;;;;12.03;67.87;101508.25;6122028;23;115827;-76
2023/11/21 09:00:33;;;;;;;22.52;11.68;;;;;;;12.06;67.78;101508.13;6122232;23;115345;-75
2023/11/21 09:03:08;;;;;;;20.50;11.90;;;;;;;12.09;67.89;101500.03;6121296;23;124747;-74
2023/11/21 09:05:39;;;;;;;20.63;11.80;;;;;;;12.13;67.85;101514.94;6122431;23;123993;-74
2023/11/21 09:08:07;;;;;;;23.85;12.18;;;;;;;12.17;67.95;101511.22;6121670;23;114756;-75
2023/11/21 09:10:39;;;;;;;23.05;12.93;;;;;;;12.19;67.96;101514.69;6121378;23;113067;-76
2023/11/21 09:13:08;;;;;;;22.75;12.57;;;;;;;12.21;67.93;101512.81;6118138;22;123127;-74
2023/11/21 09:15:37;;;;;;;24.70;13.25;;;;;;;12.23;67.83;101510.97;6121373;23;124226;-75
2023/11/21 09:18:05;;;;;;;21.20;12.85;;;;;;;12.26;67.97;101512.63;6120608;23;114349;-74
2023/11/21 09:20:32;;;;;;;23.50;12.30;;;;;;;12.29;67.96;101515.16;6119810;23;113938;-75
2023/11/21 09:22:59;;;;;;;23.35;12.68;;;;;;;12.33;68.01;101521.22;6120102;23;124638;-75
2023/11/21 09:25:28;;;;;;;22.98;12.60;;;;;;;12.38;67.65;101524.53;6119020;23;124971;-75
2023/11/21 09:27:57;;;;;;;21.83;12.07;;;;;;;12.41;67.92;101529.72;6122335;23;114217;-75
2023/11/21 09:30:24;;;;;;;23.52;11.93;;;;;;;12.44;68.13;101521.63;6121792;23;114293;-74
2023/11/21 09:32:51;;;;;;;21.85;10.20;;;;;;;12.46;67.66;101523.28;6120585;23;123994;-77
2023/11/21 09:35:25;;;;;;;19.98;10.10;;;;;;;12.49;67.90;101527.63;6120965;23;124087;-75
2023/11/21 09:37:52;;;;;;;27.80;11.30;;;;;;;12.52;67.92;101519.50;6121732;23;114570;-76
2023/11/21 09:40:22;;;;;;;23.38;11.13;;;;;;;12.58;68.00;101527.22;6121533;23;114141;-74
2023/11/21 09:42:57;;;;;;;26.23;12.10;;;;;;;12.62;68.00;101534.13;6120029;23;124000;-75
2023/11/21 09:45:31;;;;;;;28.92;12.27;;;;;;;12.66;68.02;101546.34;6119396;23;124296;-75
2023/11/21 09:47:58;;;;;;;31.88;14.35;;;;;;;12.73;67.99;101540.78;6120746;23;115137;-75
2023/11/21 09:50:28;;;;;;;27.45;14.10;;;;;;;12.77;67.93;101545.03;6121445;23;114964;-77
2023/11/21 09:53:10;;;;;;;27.60;14.00;;;;;;;12.82;68.09;101553.69;6118695;23;124567;-75
2023/11/21 09:55:40;;;;;;;25.23;13.40;;;;;;;12.85;67.89;101556.22;6121689;23;124385;-75
2023/11/21 09:58:11;;;;;;;33.05;13.77;;;;;;;12.89;67.92;101564.91;6120703;23;114802;-75
2023/11/21 10:00:47;;;;;;;28.15;14.15;;;;;;;12.90;67.85;101570.16;6120276;23;113640;-75
2023/11/21 10:03:15;;;;;;;28.80;14.90;;;;;;;12.92;67.79;101578.94;6115930;22;123334;-74
2023/11/21 10:05:44;;;;;;;27.70;13.73;;;;;;;12.93;68.16;101580.66;6120049;23;124556;-75
2023/11/21 10:08:12;;;;;;;30.00;14.98;;;;;;;12.95;67.78;101578.78;6119906;23;114539;-76
2023/11/21 10:10:45;;;;;;;32.13;15.38;;;;;;;12.96;67.60;101584.97;6121534;23;114071;-75
2023/11/21 10:13:16;;;;;;;34.63;16.05;;;;;;;12.97;67.64;101587.56;6119466;23;124262;-75
2023/11/21 10:15:48;;;;;;;32.45;15.98;;;;;;;12.99;67.74;101580.38;6120735;23;124514;-75
2023/11/21 10:18:17;;;;;;;37.83;16.38;;;;;;;13.02;67.63;101590.91;6121764;23;114176;-74
2023/11/21 10:20:51;;;;;;;30.70;16.08;;;;;;;13.06;67.89;101588.97;6095359;23;112910;-75
2023/11/21 10:23:22;;;;;;;31.40;15.32;;;;;;;13.08;67.78;101595.09;6120067;23;124229;-75
2023/11/21 10:25:51;;;;;;;34.72;15.80;;;;;;;13.12;67.85;101606.47;6121418;23;124725;-75
2023/11/21 10:28:20;;;;;;;28.50;12.45;;;;;;;13.14;67.79;101609.91;6121157;23;114311;-77
2023/11/21 10:30:49;;;;;;;31.58;13.57;;;;;;;13.17;67.95;101609.78;6122140;23;114426;-75
2023/11/21 10:33:16;;;;;;;31.35;14.30;;;;;;;13.20;67.91;101610.53;6120111;23;124840;-75
2023/11/21 10:35:54;;;;;;;31.92;14.20;;;;;;;13.25;67.89;101612.97;6120634;23;123727;-75
2023/11/21 10:38:23;;;;;;;28.05;13.77;;;;;;;13.25;67.65;101618.28;6121590;23;115542;-75
2023/11/21 10:40:51;;;;;;;29.60;13.75;;;;;;;13.25;67.77;101612.97;6120215;23;115249;-75
2023/11/21 10:43:24;;;;;;;30.05;13.88;;;;;;;13.25;67.57;101619.16;6119585;23;124866;-76
2023/11/21 10:45:51;;;;;;;32.38;13.93;;;;;;;13.27;67.77;101620.91;6120113;23;124064;-77
2023/11/21 10:48:20;;;;;;;34.45;15.27;;;;;;;13.27;67.56;101611.09;6121428;23;114707;-76
2023/11/21 10:50:48;;;;;;;32.92;14.25;;;;;;;13.26;67.43;101620.03;6122035;23;114146;-75
2023/11/21 10:53:15;;;;;;;27.88;13.77;;;;;;;13.26;67.49;101620.03;6120639;23;124388;-76
2023/11/21 10:55:46;;;;;;;33.33;14.65;;;;;;;13.23;67.63;101621.00;6120727;23;124392;-75
2023/11/21 10:58:14;;;;;;;35.35;16.27;;;;;;;13.24;67.67;101621.88;6120264;23;113512;-75
2023/11/21 11:00:44;;;;;;;37.80;16.05;;;;;;;13.26;67.75;101614.72;6122207;23;113982;-76
2023/11/21 11:03:14;;;;;;;34.80;16.17;;;;;;;13.29;67.86;101608.38;6119323;23;124581;-75
2023/11/21 11:05:51;;;;;;;38.17;16.67;;;;;;;13.32;68.09;101601.16;6121435;23;123865;-76
2023/11/21 11:08:26;;;;;;;43.15;17.00;;;;;;;13.36;67.81;101609.88;6118923;23;114243;-76
2023/11/21 11:10:55;;;;;;;40.20;17.65;;;;;;;13.39;67.73;101609.72;6120961;23;114451;-75